sensor_id;sensor_type;location;lat;lon;timestamp;temperature;humidity
612;DHT22;293;53.888;11.464;2023-09-19T00:00:00;19.30;99.90
612;DHT22;293;53.888;11.464;2023-09-19T00:02:27;19.20;99.90
612;DHT22;293;53.888;11.464;2023-09-19T00:04:56;19.20;99.90
612;DHT22;293;53.888;11.464;2023-09-19T00:07:22;19.20;99.90
612;DHT22;293;53.888;11.464;2023-09-19T00:09:49;19.20;99.90
612;DHT22;293;53.888;11.464;2023-09-19T00:12:16;19.20;99.90
612;DHT22;293;53.888;11.464;2023-09-19T00:14:43;19.20;99.90
612;DHT22;293;53.888;11.464;2023-09-19T00:17:12;19.20;99.90
612;DHT22;293;53.888;11.464;2023-09-19T00:19:38;19.20;99.90
612;DHT22;293;53.888;11.464;2023-09-19T00:22:08;19.20;99.90
612;DHT22;293;53.888;11.464;2023-09-19T00:24:35;19.10;99.90
612;DHT22;293;53.888;11.464;2023-09-19T00:27:02;19.10;99.90
612;DHT22;293;53.888;11.464;2023-09-19T00:29:29;19.00;99.90
612;DHT22;293;53.888;11.464;2023-09-19T00:31:57;19.00;99.90
612;DHT22;293;53.888;11.464;2023-09-19T00:34:26;18.90;99.90
612;DHT22;293;53.888;11.464;2023-09-19T00:36:53;18.90;99.90
612;DHT22;293;53.888;11.464;2023-09-19T00:39:20;18.90;99.90
612;DHT22;293;53.888;11.464;2023-09-19T00:41:47;18.90;99.90
612;DHT22;293;53.888;11.464;2023-09-19T00:44:14;18.90;99.90
612;DHT22;293;53.888;11.464;2023-09-19T00:46:43;18.80;99.90
612;DHT22;293;53.888;11.464;2023-09-19T00:49:13;18.80;99.90
612;DHT22;293;53.888;11.464;2023-09-19T00:51:42;18.80;99.90
612;DHT22;293;53.888;11.464;2023-09-19T00:54:13;18.80;99.90
612;DHT22;293;53.888;11.464;2023-09-19T00:56:44;18.70;99.90
612;DHT22;293;53.888;11.464;2023-09-19T00:59:11;18.60;99.90
612;DHT22;293;53.888;11.464;2023-09-19T01:01:39;18.60;99.90
612;DHT22;293;53.888;11.464;2023-09-19T01:04:06;18.50;99.90
612;DHT22;293;53.888;11.464;2023-09-19T01:06:33;18.50;99.90
612;DHT22;293;53.888;11.464;2023-09-19T01:09:03;18.50;99.90
612;DHT22;293;53.888;11.464;2023-09-19T01:11:35;18.40;99.90
612;DHT22;293;53.888;11.464;2023-09-19T01:14:16;18.40;99.90
612;DHT22;293;53.888;11.464;2023-09-19T01:16:53;18.50;99.90
612;DHT22;293;53.888;11.464;2023-09-19T01:22:31;18.30;99.90
612;DHT22;293;53.888;11.464;2023-09-19T01:25:34;18.30;99.90
612;DHT22;293;53.888;11.464;2023-09-19T01:28:28;18.20;99.90
612;DHT22;293;53.888;11.464;2023-09-19T01:31:07;18.20;99.90
612;DHT22;293;53.888;11.464;2023-09-19T01:33:54;18.20;99.90
612;DHT22;293;53.888;11.464;2023-09-19T01:36:29;18.10;99.90
612;DHT22;293;53.888;11.464;2023-09-19T01:38:57;18.10;99.90
612;DHT22;293;53.888;11.464;2023-09-19T01:41:54;18.10;99.90
612;DHT22;293;53.888;11.464;2023-09-19T01:44:29;18.10;99.90
612;DHT22;293;53.888;11.464;2023-09-19T01:47:04;18.10;99.90
612;DHT22;293;53.888;11.464;2023-09-19T01:49:50;18.20;99.90
612;DHT22;293;53.888;11.464;2023-09-19T01:52:26;18.10;99.90
612;DHT22;293;53.888;11.464;2023-09-19T01:54:58;18.00;99.90
612;DHT22;293;53.888;11.464;2023-09-19T01:57:35;18.00;99.90
612;DHT22;293;53.888;11.464;2023-09-19T02:00:06;17.90;99.90
612;DHT22;293;53.888;11.464;2023-09-19T02:02:37;17.90;99.90
612;DHT22;293;53.888;11.464;2023-09-19T02:05:04;17.90;99.90
612;DHT22;293;53.888;11.464;2023-09-19T02:07:32;17.90;99.90
612;DHT22;293;53.888;11.464;2023-09-19T02:09:59;17.80;99.90
612;DHT22;293;53.888;11.464;2023-09-19T02:12:26;17.80;99.90
612;DHT22;293;53.888;11.464;2023-09-19T02:14:54;17.70;99.90
612;DHT22;293;53.888;11.464;2023-09-19T02:17:22;17.60;99.90
612;DHT22;293;53.888;11.464;2023-09-19T02:19:52;17.60;99.90
612;DHT22;293;53.888;11.464;2023-09-19T02:22:20;17.70;99.90
612;DHT22;293;53.888;11.464;2023-09-19T02:24:48;17.60;99.90
612;DHT22;293;53.888;11.464;2023-09-19T02:27:16;17.60;99.90
612;DHT22;293;53.888;11.464;2023-09-19T02:29:43;17.70;99.90
612;DHT22;293;53.888;11.464;2023-09-19T02:32:10;17.80;99.90
612;DHT22;293;53.888;11.464;2023-09-19T02:34:37;17.80;99.90
612;DHT22;293;53.888;11.464;2023-09-19T02:37:07;17.70;99.90
612;DHT22;293;53.888;11.464;2023-09-19T02:39:34;17.70;99.90
612;DHT22;293;53.888;11.464;2023-09-19T02:42:02;17.70;99.90
612;DHT22;293;53.888;11.464;2023-09-19T02:44:30;17.70;99.90
612;DHT22;293;53.888;11.464;2023-09-19T02:46:57;17.70;99.90
612;DHT22;293;53.888;11.464;2023-09-19T02:49:24;17.70;99.90
612;DHT22;293;53.888;11.464;2023-09-19T02:51:52;17.70;99.90
612;DHT22;293;53.888;11.464;2023-09-19T02:54:20;17.60;99.90
612;DHT22;293;53.888;11.464;2023-09-19T02:56:58;17.60;99.90
612;DHT22;293;53.888;11.464;2023-09-19T02:59:25;17.60;99.90
612;DHT22;293;53.888;11.464;2023-09-19T03:01:54;17.60;99.90
612;DHT22;293;53.888;11.464;2023-09-19T03:04:21;17.50;99.90
612;DHT22;293;53.888;11.464;2023-09-19T03:06:48;17.40;99.90
612;DHT22;293;53.888;11.464;2023-09-19T03:09:16;17.40;99.90
612;DHT22;293;53.888;11.464;2023-09-19T03:11:46;17.50;99.90
612;DHT22;293;53.888;11.464;2023-09-19T03:14:13;17.40;99.90
612;DHT22;293;53.888;11.464;2023-09-19T03:16:41;17.40;99.90
612;DHT22;293;53.888;11.464;2023-09-19T03:19:10;17.40;99.90
612;DHT22;293;53.888;11.464;2023-09-19T03:21:37;17.40;99.90
612;DHT22;293;53.888;11.464;2023-09-19T03:24:05;17.30;99.90
612;DHT22;293;53.888;11.464;2023-09-19T03:26:32;17.30;99.90
612;DHT22;293;53.888;11.464;2023-09-19T03:29:03;17.20;99.90
612;DHT22;293;53.888;11.464;2023-09-19T03:31:33;17.10;99.90
612;DHT22;293;53.888;11.464;2023-09-19T03:34:02;17.10;99.90
612;DHT22;293;53.888;11.464;2023-09-19T03:36:30;17.10;99.90
612;DHT22;293;53.888;11.464;2023-09-19T03:38:57;17.10;99.90
612;DHT22;293;53.888;11.464;2023-09-19T03:41:24;17.00;99.90
612;DHT22;293;53.888;11.464;2023-09-19T03:43:51;17.00;99.90
612;DHT22;293;53.888;11.464;2023-09-19T03:46:19;16.90;99.90
612;DHT22;293;53.888;11.464;2023-09-19T03:48:46;17.00;99.90
612;DHT22;293;53.888;11.464;2023-09-19T03:51:13;16.90;99.90
612;DHT22;293;53.888;11.464;2023-09-19T03:53:40;16.90;99.90
612;DHT22;293;53.888;11.464;2023-09-19T03:56:07;16.80;99.90
612;DHT22;293;53.888;11.464;2023-09-19T03:58:34;16.80;99.90
612;DHT22;293;53.888;11.464;2023-09-19T04:01:04;16.80;99.90
612;DHT22;293;53.888;11.464;2023-09-19T04:03:33;16.80;99.90
612;DHT22;293;53.888;11.464;2023-09-19T04:06:11;16.80;99.90
612;DHT22;293;53.888;11.464;2023-09-19T04:08:38;16.80;99.90
612;DHT22;293;53.888;11.464;2023-09-19T04:11:05;16.80;99.90
612;DHT22;293;53.888;11.464;2023-09-19T04:13:32;16.80;99.90
612;DHT22;293;53.888;11.464;2023-09-19T04:15:59;16.70;99.90
612;DHT22;293;53.888;11.464;2023-09-19T04:18:26;16.70;99.90
612;DHT22;293;53.888;11.464;2023-09-19T04:20:54;16.70;99.90
612;DHT22;293;53.888;11.464;2023-09-19T04:23:21;16.80;99.90
612;DHT22;293;53.888;11.464;2023-09-19T04:25:48;16.80;99.90
612;DHT22;293;53.888;11.464;2023-09-19T04:28:16;16.70;99.90
612;DHT22;293;53.888;11.464;2023-09-19T04:30:43;16.70;99.90
612;DHT22;293;53.888;11.464;2023-09-19T04:33:10;16.70;99.90
612;DHT22;293;53.888;11.464;2023-09-19T04:35:37;16.60;99.90
612;DHT22;293;53.888;11.464;2023-09-19T04:38:05;16.70;99.90
612;DHT22;293;53.888;11.464;2023-09-19T04:40:32;16.70;99.90
612;DHT22;293;53.888;11.464;2023-09-19T04:43:00;16.60;99.90
612;DHT22;293;53.888;11.464;2023-09-19T04:45:27;16.70;99.90
612;DHT22;293;53.888;11.464;2023-09-19T04:47:55;16.60;99.90
612;DHT22;293;53.888;11.464;2023-09-19T04:50:22;16.60;99.90
612;DHT22;293;53.888;11.464;2023-09-19T04:52:50;16.60;99.90
612;DHT22;293;53.888;11.464;2023-09-19T04:55:18;16.70;99.90
612;DHT22;293;53.888;11.464;2023-09-19T04:57:46;16.70;99.90
612;DHT22;293;53.888;11.464;2023-09-19T05:00:15;16.70;99.90
612;DHT22;293;53.888;11.464;2023-09-19T05:02:42;16.70;99.90
612;DHT22;293;53.888;11.464;2023-09-19T05:05:10;16.60;99.90
612;DHT22;293;53.888;11.464;2023-09-19T05:07:39;16.60;99.90
612;DHT22;293;53.888;11.464;2023-09-19T05:10:08;16.60;99.90
612;DHT22;293;53.888;11.464;2023-09-19T05:12:37;16.60;99.90
612;DHT22;293;53.888;11.464;2023-09-19T05:15:04;16.70;99.90
612;DHT22;293;53.888;11.464;2023-09-19T05:17:33;16.80;99.90
612;DHT22;293;53.888;11.464;2023-09-19T05:20:00;16.80;99.90
612;DHT22;293;53.888;11.464;2023-09-19T05:22:40;16.80;99.90
612;DHT22;293;53.888;11.464;2023-09-19T05:25:08;16.90;99.90
612;DHT22;293;53.888;11.464;2023-09-19T05:27:37;17.00;99.90
612;DHT22;293;53.888;11.464;2023-09-19T05:30:04;17.00;99.90
612;DHT22;293;53.888;11.464;2023-09-19T05:32:32;17.00;99.90
612;DHT22;293;53.888;11.464;2023-09-19T05:34:59;17.00;99.90
612;DHT22;293;53.888;11.464;2023-09-19T05:37:26;17.10;99.90
612;DHT22;293;53.888;11.464;2023-09-19T05:39:53;17.20;99.90
612;DHT22;293;53.888;11.464;2023-09-19T05:42:20;17.30;99.90
612;DHT22;293;53.888;11.464;2023-09-19T05:44:49;17.30;99.90
612;DHT22;293;53.888;11.464;2023-09-19T05:47:15;17.50;99.90
612;DHT22;293;53.888;11.464;2023-09-19T05:49:42;17.70;99.90
612;DHT22;293;53.888;11.464;2023-09-19T05:52:09;17.80;99.90
612;DHT22;293;53.888;11.464;2023-09-19T05:54:36;17.60;99.90
612;DHT22;293;53.888;11.464;2023-09-19T05:57:03;17.40;99.90
612;DHT22;293;53.888;11.464;2023-09-19T05:59:30;17.30;99.90
612;DHT22;293;53.888;11.464;2023-09-19T06:02:00;17.00;99.90
612;DHT22;293;53.888;11.464;2023-09-19T06:04:27;16.90;99.90
612;DHT22;293;53.888;11.464;2023-09-19T06:06:56;16.80;99.90
612;DHT22;293;53.888;11.464;2023-09-19T06:09:23;16.80;99.90
612;DHT22;293;53.888;11.464;2023-09-19T06:11:53;16.80;99.90
612;DHT22;293;53.888;11.464;2023-09-19T06:14:21;16.80;99.90
612;DHT22;293;53.888;11.464;2023-09-19T06:16:50;16.90;99.90
612;DHT22;293;53.888;11.464;2023-09-19T06:19:21;17.00;99.90
612;DHT22;293;53.888;11.464;2023-09-19T06:21:52;17.00;99.90
612;DHT22;293;53.888;11.464;2023-09-19T06:24:19;17.20;99.90
612;DHT22;293;53.888;11.464;2023-09-19T06:26:46;17.30;99.90
612;DHT22;293;53.888;11.464;2023-09-19T06:29:15;17.30;99.90
612;DHT22;293;53.888;11.464;2023-09-19T06:31:43;17.40;99.90
612;DHT22;293;53.888;11.464;2023-09-19T06:34:10;17.30;99.90
612;DHT22;293;53.888;11.464;2023-09-19T06:36:38;17.20;99.90
612;DHT22;293;53.888;11.464;2023-09-19T06:39:06;17.40;99.90
612;DHT22;293;53.888;11.464;2023-09-19T06:41:36;17.40;99.90
612;DHT22;293;53.888;11.464;2023-09-19T06:44:04;17.40;99.90
612;DHT22;293;53.888;11.464;2023-09-19T06:46:31;17.50;99.90
612;DHT22;293;53.888;11.464;2023-09-19T06:49:00;17.50;99.90
612;DHT22;293;53.888;11.464;2023-09-19T06:51:31;17.60;99.90
612;DHT22;293;53.888;11.464;2023-09-19T06:54:01;17.60;99.90
612;DHT22;293;53.888;11.464;2023-09-19T06:56:30;17.70;99.90
612;DHT22;293;53.888;11.464;2023-09-19T06:58:57;17.70;99.90
612;DHT22;293;53.888;11.464;2023-09-19T07:01:24;17.80;99.90
612;DHT22;293;53.888;11.464;2023-09-19T07:03:51;17.90;99.90
612;DHT22;293;53.888;11.464;2023-09-19T07:06:18;17.80;99.90
612;DHT22;293;53.888;11.464;2023-09-19T07:08:45;17.90;99.90
612;DHT22;293;53.888;11.464;2023-09-19T07:11:14;18.00;99.90
612;DHT22;293;53.888;11.464;2023-09-19T07:13:41;18.10;99.90
612;DHT22;293;53.888;11.464;2023-09-19T07:16:09;18.20;99.90
612;DHT22;293;53.888;11.464;2023-09-19T07:18:52;18.30;99.90
612;DHT22;293;53.888;11.464;2023-09-19T07:21:20;18.40;99.90
612;DHT22;293;53.888;11.464;2023-09-19T07:23:47;18.50;99.90
612;DHT22;293;53.888;11.464;2023-09-19T07:26:16;18.60;99.90
612;DHT22;293;53.888;11.464;2023-09-19T07:28:43;18.60;99.90
612;DHT22;293;53.888;11.464;2023-09-19T07:31:10;18.60;99.90
612;DHT22;293;53.888;11.464;2023-09-19T07:33:38;18.60;99.90
612;DHT22;293;53.888;11.464;2023-09-19T07:36:06;18.70;99.90
612;DHT22;293;53.888;11.464;2023-09-19T07:38:36;18.60;99.90
612;DHT22;293;53.888;11.464;2023-09-19T07:41:03;18.70;99.90
612;DHT22;293;53.888;11.464;2023-09-19T07:43:32;18.80;99.90
612;DHT22;293;53.888;11.464;2023-09-19T07:46:03;18.80;99.90
612;DHT22;293;53.888;11.464;2023-09-19T07:48:31;18.80;99.90
612;DHT22;293;53.888;11.464;2023-09-19T07:51:02;18.90;99.90
612;DHT22;293;53.888;11.464;2023-09-19T07:53:29;19.00;99.90
612;DHT22;293;53.888;11.464;2023-09-19T07:56:02;19.00;99.90
612;DHT22;293;53.888;11.464;2023-09-19T07:58:29;19.00;99.90
612;DHT22;293;53.888;11.464;2023-09-19T08:01:02;18.90;99.90
612;DHT22;293;53.888;11.464;2023-09-19T08:03:29;18.80;99.90
612;DHT22;293;53.888;11.464;2023-09-19T08:05:56;18.60;99.90
612;DHT22;293;53.888;11.464;2023-09-19T08:08:23;18.70;99.90
612;DHT22;293;53.888;11.464;2023-09-19T08:10:53;18.80;99.90
612;DHT22;293;53.888;11.464;2023-09-19T08:13:22;18.90;99.90
612;DHT22;293;53.888;11.464;2023-09-19T08:15:48;19.00;99.90
612;DHT22;293;53.888;11.464;2023-09-19T08:18:17;19.00;99.90
612;DHT22;293;53.888;11.464;2023-09-19T08:20:49;19.30;99.90
612;DHT22;293;53.888;11.464;2023-09-19T08:23:16;19.40;99.90
612;DHT22;293;53.888;11.464;2023-09-19T08:25:45;19.40;99.90
612;DHT22;293;53.888;11.464;2023-09-19T08:28:12;19.10;99.90
612;DHT22;293;53.888;11.464;2023-09-19T08:30:44;19.10;99.90
612;DHT22;293;53.888;11.464;2023-09-19T08:33:11;19.20;99.90
612;DHT22;293;53.888;11.464;2023-09-19T08:35:42;19.10;99.90
612;DHT22;293;53.888;11.464;2023-09-19T08:38:10;19.10;99.90
612;DHT22;293;53.888;11.464;2023-09-19T08:40:39;19.00;99.90
612;DHT22;293;53.888;11.464;2023-09-19T08:43:07;19.10;99.90
612;DHT22;293;53.888;11.464;2023-09-19T08:45:35;19.30;99.90
612;DHT22;293;53.888;11.464;2023-09-19T08:48:22;19.30;99.90
612;DHT22;293;53.888;11.464;2023-09-19T08:50:54;19.30;99.90
612;DHT22;293;53.888;11.464;2023-09-19T08:53:27;19.30;99.90
612;DHT22;293;53.888;11.464;2023-09-19T08:55:55;19.50;99.90
612;DHT22;293;53.888;11.464;2023-09-19T08:58:26;19.50;99.90
612;DHT22;293;53.888;11.464;2023-09-19T09:00:55;19.60;99.90
612;DHT22;293;53.888;11.464;2023-09-19T09:03:23;19.70;99.90
612;DHT22;293;53.888;11.464;2023-09-19T09:05:52;19.80;99.60
612;DHT22;293;53.888;11.464;2023-09-19T09:08:19;19.90;99.90
612;DHT22;293;53.888;11.464;2023-09-19T09:10:47;20.10;99.90
612;DHT22;293;53.888;11.464;2023-09-19T09:13:14;20.10;99.10
612;DHT22;293;53.888;11.464;2023-09-19T09:15:42;20.10;99.20
612;DHT22;293;53.888;11.464;2023-09-19T09:18:10;20.00;98.80
612;DHT22;293;53.888;11.464;2023-09-19T09:20:37;19.70;99.20
612;DHT22;293;53.888;11.464;2023-09-19T09:23:05;19.60;99.60
612;DHT22;293;53.888;11.464;2023-09-19T09:25:49;19.30;99.50
612;DHT22;293;53.888;11.464;2023-09-19T09:28:20;19.20;99.90
612;DHT22;293;53.888;11.464;2023-09-19T09:30:47;19.20;99.90
612;DHT22;293;53.888;11.464;2023-09-19T09:33:16;19.00;99.90
612;DHT22;293;53.888;11.464;2023-09-19T09:35:50;19.00;99.90
612;DHT22;293;53.888;11.464;2023-09-19T09:38:20;19.10;99.90
612;DHT22;293;53.888;11.464;2023-09-19T09:40:52;18.90;99.90
612;DHT22;293;53.888;11.464;2023-09-19T09:43:32;18.90;99.90
612;DHT22;293;53.888;11.464;2023-09-19T09:46:13;18.90;99.90
612;DHT22;293;53.888;11.464;2023-09-19T09:49:03;18.90;99.90
612;DHT22;293;53.888;11.464;2023-09-19T09:51:59;19.10;99.90
612;DHT22;293;53.888;11.464;2023-09-19T09:54:32;19.00;99.90
612;DHT22;293;53.888;11.464;2023-09-19T09:57:03;19.20;99.90
612;DHT22;293;53.888;11.464;2023-09-19T09:59:47;19.30;99.90
612;DHT22;293;53.888;11.464;2023-09-19T10:02:15;19.40;99.90
612;DHT22;293;53.888;11.464;2023-09-19T10:04:48;19.50;99.90
612;DHT22;293;53.888;11.464;2023-09-19T10:07:34;19.60;99.90
612;DHT22;293;53.888;11.464;2023-09-19T10:10:08;19.90;99.90
612;DHT22;293;53.888;11.464;2023-09-19T10:12:44;20.00;99.90
612;DHT22;293;53.888;11.464;2023-09-19T10:15:15;20.00;99.10
612;DHT22;293;53.888;11.464;2023-09-19T10:17:44;20.10;98.90
612;DHT22;293;53.888;11.464;2023-09-19T10:20:15;20.10;98.50
612;DHT22;293;53.888;11.464;2023-09-19T10:23:06;20.10;97.70
612;DHT22;293;53.888;11.464;2023-09-19T10:25:42;20.20;98.00
612;DHT22;293;53.888;11.464;2023-09-19T10:28:10;20.30;97.90
612;DHT22;293;53.888;11.464;2023-09-19T10:30:38;20.20;97.50
612;DHT22;293;53.888;11.464;2023-09-19T10:33:11;20.20;97.20
612;DHT22;293;53.888;11.464;2023-09-19T10:35:39;20.30;98.00
612;DHT22;293;53.888;11.464;2023-09-19T10:38:07;20.30;97.10
612;DHT22;293;53.888;11.464;2023-09-19T10:40:37;20.20;97.30
612;DHT22;293;53.888;11.464;2023-09-19T10:43:12;20.10;97.00
612;DHT22;293;53.888;11.464;2023-09-19T10:45:41;20.10;97.20
612;DHT22;293;53.888;11.464;2023-09-19T10:48:10;20.10;96.40
612;DHT22;293;53.888;11.464;2023-09-19T10:50:43;20.10;96.60
612;DHT22;293;53.888;11.464;2023-09-19T10:53:12;20.10;96.30
612;DHT22;293;53.888;11.464;2023-09-19T10:55:41;20.10;96.90
612;DHT22;293;53.888;11.464;2023-09-19T10:58:25;20.20;96.80
612;DHT22;293;53.888;11.464;2023-09-19T11:00:55;20.30;96.50
612;DHT22;293;53.888;11.464;2023-09-19T11:03:23;20.20;95.70
612;DHT22;293;53.888;11.464;2023-09-19T11:06:16;20.20;96.00
612;DHT22;293;53.888;11.464;2023-09-19T11:09:00;20.20;96.60
612;DHT22;293;53.888;11.464;2023-09-19T11:11:51;20.30;96.40
612;DHT22;293;53.888;11.464;2023-09-19T11:14:44;20.30;95.00
612;DHT22;293;53.888;11.464;2023-09-19T11:17:41;20.40;95.80
612;DHT22;293;53.888;11.464;2023-09-19T11:20:21;20.50;95.40
612;DHT22;293;53.888;11.464;2023-09-19T11:23:19;20.50;95.40
612;DHT22;293;53.888;11.464;2023-09-19T11:25:50;20.60;95.20
612;DHT22;293;53.888;11.464;2023-09-19T11:28:29;20.70;95.10
612;DHT22;293;53.888;11.464;2023-09-19T11:30:58;20.70;94.50
612;DHT22;293;53.888;11.464;2023-09-19T11:33:26;20.80;94.90
612;DHT22;293;53.888;11.464;2023-09-19T11:35:59;20.70;94.60
612;DHT22;293;53.888;11.464;2023-09-19T11:39:00;20.70;94.80
612;DHT22;293;53.888;11.464;2023-09-19T11:41:38;20.70;94.20
612;DHT22;293;53.888;11.464;2023-09-19T11:44:34;20.80;94.40
612;DHT22;293;53.888;11.464;2023-09-19T11:47:05;20.80;93.80
612;DHT22;293;53.888;11.464;2023-09-19T11:49:32;20.60;94.00
612;DHT22;293;53.888;11.464;2023-09-19T11:52:01;20.60;94.30
612;DHT22;293;53.888;11.464;2023-09-19T11:54:31;20.70;94.10
612;DHT22;293;53.888;11.464;2023-09-19T11:56:59;20.70;93.80
612;DHT22;293;53.888;11.464;2023-09-19T11:59:28;20.60;93.60
612;DHT22;293;53.888;11.464;2023-09-19T12:01:56;20.60;94.00
612;DHT22;293;53.888;11.464;2023-09-19T12:04:38;20.70;93.60
612;DHT22;293;53.888;11.464;2023-09-19T12:07:07;20.70;94.00
612;DHT22;293;53.888;11.464;2023-09-19T12:09:41;20.70;93.80
612;DHT22;293;53.888;11.464;2023-09-19T12:12:10;20.80;93.80
612;DHT22;293;53.888;11.464;2023-09-19T12:14:39;20.80;93.70
612;DHT22;293;53.888;11.464;2023-09-19T12:17:09;20.80;93.90
612;DHT22;293;53.888;11.464;2023-09-19T12:19:37;20.80;93.50
612;DHT22;293;53.888;11.464;2023-09-19T12:22:04;20.70;93.30
612;DHT22;293;53.888;11.464;2023-09-19T12:24:31;20.70;93.10
612;DHT22;293;53.888;11.464;2023-09-19T12:27:02;20.60;93.60
612;DHT22;293;53.888;11.464;2023-09-19T12:29:31;20.70;93.50
612;DHT22;293;53.888;11.464;2023-09-19T12:32:02;20.70;93.90
612;DHT22;293;53.888;11.464;2023-09-19T12:34:32;20.80;93.50
612;DHT22;293;53.888;11.464;2023-09-19T12:37:06;20.90;93.50
612;DHT22;293;53.888;11.464;2023-09-19T12:39:38;21.00;93.60
612;DHT22;293;53.888;11.464;2023-09-19T12:42:08;21.00;93.40
612;DHT22;293;53.888;11.464;2023-09-19T12:44:36;21.00;93.90
612;DHT22;293;53.888;11.464;2023-09-19T12:47:15;21.00;93.40
612;DHT22;293;53.888;11.464;2023-09-19T12:50:07;21.00;93.60
612;DHT22;293;53.888;11.464;2023-09-19T12:52:40;21.10;93.60
612;DHT22;293;53.888;11.464;2023-09-19T12:55:08;21.10;93.50
612;DHT22;293;53.888;11.464;2023-09-19T12:57:58;21.00;93.40
612;DHT22;293;53.888;11.464;2023-09-19T13:00:35;21.00;93.80
612;DHT22;293;53.888;11.464;2023-09-19T13:03:16;21.00;94.10
612;DHT22;293;53.888;11.464;2023-09-19T13:05:52;21.10;93.20
612;DHT22;293;53.888;11.464;2023-09-19T13:08:24;21.00;92.80
612;DHT22;293;53.888;11.464;2023-09-19T13:11:12;21.00;93.30
612;DHT22;293;53.888;11.464;2023-09-19T13:13:42;21.00;92.50
612;DHT22;293;53.888;11.464;2023-09-19T13:16:10;20.90;92.20
612;DHT22;293;53.888;11.464;2023-09-19T13:18:47;20.80;92.00
612;DHT22;293;53.888;11.464;2023-09-19T13:21:17;20.80;91.90
612;DHT22;293;53.888;11.464;2023-09-19T13:23:53;20.70;92.00
612;DHT22;293;53.888;11.464;2023-09-19T13:26:22;20.60;92.90
612;DHT22;293;53.888;11.464;2023-09-19T13:28:49;20.80;92.10
612;DHT22;293;53.888;11.464;2023-09-19T13:31:16;20.80;92.30
612;DHT22;293;53.888;11.464;2023-09-19T13:33:43;20.80;92.70
612;DHT22;293;53.888;11.464;2023-09-19T13:36:11;20.80;92.20
612;DHT22;293;53.888;11.464;2023-09-19T13:38:38;20.80;92.20
612;DHT22;293;53.888;11.464;2023-09-19T13:41:07;20.80;91.60
612;DHT22;293;53.888;11.464;2023-09-19T13:43:35;20.80;92.00
612;DHT22;293;53.888;11.464;2023-09-19T13:46:02;21.00;92.00
612;DHT22;293;53.888;11.464;2023-09-19T13:48:29;20.90;92.00
612;DHT22;293;53.888;11.464;2023-09-19T13:50:56;20.80;92.30
612;DHT22;293;53.888;11.464;2023-09-19T13:53:23;20.70;92.30
612;DHT22;293;53.888;11.464;2023-09-19T13:55:51;20.80;91.80
612;DHT22;293;53.888;11.464;2023-09-19T13:58:19;20.70;92.20
612;DHT22;293;53.888;11.464;2023-09-19T14:00:46;20.70;91.90
612;DHT22;293;53.888;11.464;2023-09-19T14:03:13;20.80;92.00
612;DHT22;293;53.888;11.464;2023-09-19T14:05:40;20.90;91.60
612;DHT22;293;53.888;11.464;2023-09-19T14:08:08;20.90;91.50
612;DHT22;293;53.888;11.464;2023-09-19T14:10:35;21.00;91.70
612;DHT22;293;53.888;11.464;2023-09-19T14:13:01;21.00;91.30
612;DHT22;293;53.888;11.464;2023-09-19T14:15:30;21.00;91.50
612;DHT22;293;53.888;11.464;2023-09-19T14:18:00;21.10;91.30
612;DHT22;293;53.888;11.464;2023-09-19T14:20:27;21.10;91.60
612;DHT22;293;53.888;11.464;2023-09-19T14:22:54;21.10;91.20
612;DHT22;293;53.888;11.464;2023-09-19T14:25:21;21.00;91.00
612;DHT22;293;53.888;11.464;2023-09-19T14:27:48;21.00;91.20
612;DHT22;293;53.888;11.464;2023-09-19T14:30:15;21.00;91.70
612;DHT22;293;53.888;11.464;2023-09-19T14:32:43;20.90;91.00
612;DHT22;293;53.888;11.464;2023-09-19T14:35:10;20.80;91.10
612;DHT22;293;53.888;11.464;2023-09-19T14:37:40;20.70;91.30
612;DHT22;293;53.888;11.464;2023-09-19T14:40:08;20.60;90.70
612;DHT22;293;53.888;11.464;2023-09-19T14:42:38;20.50;91.40
612;DHT22;293;53.888;11.464;2023-09-19T14:45:05;20.40;91.50
612;DHT22;293;53.888;11.464;2023-09-19T14:47:33;20.40;92.00
612;DHT22;293;53.888;11.464;2023-09-19T14:50:01;20.20;92.20
612;DHT22;293;53.888;11.464;2023-09-19T14:52:32;20.30;92.40
612;DHT22;293;53.888;11.464;2023-09-19T14:54:59;20.30;92.10
612;DHT22;293;53.888;11.464;2023-09-19T14:57:27;20.40;92.10
612;DHT22;293;53.888;11.464;2023-09-19T14:59:55;20.40;92.40
612;DHT22;293;53.888;11.464;2023-09-19T15:02:21;20.40;92.50
612;DHT22;293;53.888;11.464;2023-09-19T15:04:49;20.40;92.60
612;DHT22;293;53.888;11.464;2023-09-19T15:07:17;20.40;92.40
612;DHT22;293;53.888;11.464;2023-09-19T15:09:45;20.30;93.10
612;DHT22;293;53.888;11.464;2023-09-19T15:12:12;20.30;92.60
612;DHT22;293;53.888;11.464;2023-09-19T15:14:40;20.30;92.50
612;DHT22;293;53.888;11.464;2023-09-19T15:17:08;20.20;92.90
612;DHT22;293;53.888;11.464;2023-09-19T15:19:35;20.10;92.90
612;DHT22;293;53.888;11.464;2023-09-19T15:22:04;20.10;92.90
612;DHT22;293;53.888;11.464;2023-09-19T15:24:32;19.90;92.50
612;DHT22;293;53.888;11.464;2023-09-19T15:27:00;19.90;92.80
612;DHT22;293;53.888;11.464;2023-09-19T15:29:27;19.80;92.90
612;DHT22;293;53.888;11.464;2023-09-19T15:31:55;19.80;93.00
612;DHT22;293;53.888;11.464;2023-09-19T15:34:24;19.80;93.10
612;DHT22;293;53.888;11.464;2023-09-19T15:36:51;19.80;93.00
612;DHT22;293;53.888;11.464;2023-09-19T15:39:18;19.80;93.00
612;DHT22;293;53.888;11.464;2023-09-19T15:41:49;19.80;93.20
612;DHT22;293;53.888;11.464;2023-09-19T15:44:18;19.80;92.90
612;DHT22;293;53.888;11.464;2023-09-19T15:46:45;19.80;93.30
612;DHT22;293;53.888;11.464;2023-09-19T15:49:12;19.90;93.40
612;DHT22;293;53.888;11.464;2023-09-19T15:51:39;19.90;93.30
612;DHT22;293;53.888;11.464;2023-09-19T15:54:10;19.90;93.40
612;DHT22;293;53.888;11.464;2023-09-19T15:56:38;19.90;94.10
612;DHT22;293;53.888;11.464;2023-09-19T15:59:08;19.90;93.60
612;DHT22;293;53.888;11.464;2023-09-19T16:01:37;19.90;93.90
612;DHT22;293;53.888;11.464;2023-09-19T16:04:06;19.90;94.30
612;DHT22;293;53.888;11.464;2023-09-19T16:06:34;19.90;94.00
612;DHT22;293;53.888;11.464;2023-09-19T16:09:02;19.80;93.80
612;DHT22;293;53.888;11.464;2023-09-19T16:11:31;19.80;93.90
612;DHT22;293;53.888;11.464;2023-09-19T16:13:58;19.80;93.90
612;DHT22;293;53.888;11.464;2023-09-19T16:16:29;19.70;94.00
612;DHT22;293;53.888;11.464;2023-09-19T16:18:59;19.60;94.10
612;DHT22;293;53.888;11.464;2023-09-19T16:21:27;19.50;94.50
612;DHT22;293;53.888;11.464;2023-09-19T16:23:56;19.40;95.00
612;DHT22;293;53.888;11.464;2023-09-19T16:26:24;19.40;95.10
612;DHT22;293;53.888;11.464;2023-09-19T16:28:53;19.40;95.10
612;DHT22;293;53.888;11.464;2023-09-19T16:31:21;19.40;95.00
612;DHT22;293;53.888;11.464;2023-09-19T16:33:49;19.50;95.30
612;DHT22;293;53.888;11.464;2023-09-19T16:36:17;19.60;95.20
612;DHT22;293;53.888;11.464;2023-09-19T16:38:45;19.60;95.10